Time;durP1;ratioP1;P1;durP2;ratioP2;P2;SDS_P1;SDS_P2;PMS_P1;PMS_P2;Temp;Humidity;BMP_temperature;BMP_pressure;BME280_temperature;BME280_humidity;BME280_pressure;Samples;Min_cycle;Max_cycle;Signal;HPM_P1;HPM_P2
2022/08/01 00:01:05;;;;;;;;;;;;;;;;;;6265241;22;19986;-89
2022/08/01 00:03:36;;;;;;;;;;;;;;;;;;6242624;22;19914;-89
2022/08/01 00:06:05;;;;;;;;;;;;;;;;;;6265368;22;19922;-90
2022/08/01 00:08:53;;;;;;;;;;;;;;;;;;6269297;22;19911;-87
2022/08/01 00:11:25;;;;;;;;;;;;;;;;;;6264682;22;20280;-87
2022/08/01 00:13:54;;;;;;;;;;;;;;;;;;6236913;22;19985;-87
2022/08/01 00:16:40;;;;;;;;;;;;;;;;;;6300589;22;19926;-87
2022/08/01 00:19:09;;;;;;;;;;;;;;;;;;6259892;22;20042;-87
2022/08/01 00:21:43;;;;;;;;;;;;;;;;;;6237120;22;19911;-88
2022/08/01 00:24:09;;;;;;;;;;;;;;;;;;6260359;22;19992;-87
2022/08/01 00:26:43;;;;;;;;;;;;;;;;;;6262755;22;20343;-87
2022/08/01 00:29:09;;;;;;;;;;;;;;;;;;6261128;22;19921;-87
2022/08/01 00:31:38;;;;;;;;;;;;;;;;;;6287446;22;20331;-86
2022/08/01 00:34:09;;;;;;;;;;;;;;;;;;6260145;22;19918;-87
2022/08/01 00:36:46;;;;;;;;;;;;;;;;;;6264767;22;20256;-87
2022/08/01 00:39:32;;;;;;;;;;;;;;;;;;6260089;22;20378;-87
2022/08/01 00:42:13;;;;;;;;;;;;;;;;;;6258712;22;20218;-87
2022/08/01 00:44:39;;;;;;;;;;;;;;;;;;6259857;22;19965;-87
2022/08/01 00:47:11;;;;;;;;;;;;;;;;;;6231728;22;19911;-87
2022/08/01 00:49:37;;;;;;;;;;;;;;;;;;6257862;22;19915;-87
2022/08/01 00:52:04;;;;;;;;;;;;;;;;;;6259826;22;19922;-87
2022/08/01 00:54:35;;;;;;;;;;;;;;;;;;6261566;22;20369;-87
2022/08/01 00:57:07;;;;;;;;;;;;;;;;;;6260520;22;19918;-87
2022/08/01 01:00:00;;;;;;;;;;;;;;;;;;6236931;22;19914;-88
2022/08/01 01:02:28;;;;;;;;;;;;;;;;;;6260954;22;19922;-88
2022/08/01 01:05:00;;;;;;;;;;;;;;;;;;6259347;22;19916;-88
2022/08/01 01:07:35;;;;;;;;;;;;;;;;;;6236200;22;19915;-89
2022/08/01 01:10:11;;;;;;;;;;;;;;;;;;6258630;22;19915;-88
2022/08/01 01:12:37;;;;;;;;;;;;;;;;;;6263063;22;19922;-88
2022/08/01 01:15:06;;;;;;;;;;;;;;;;;;6285590;22;20403;-88
2022/08/01 01:17:35;;;;;;;;;;;;;;;;;;6235650;22;19915;-88
2022/08/01 01:20:06;;;;;;;;;;;;;;;;;;6260273;22;19958;-89
2022/08/01 01:22:35;;;;;;;;;;;;;;;;;;6259894;22;19915;-88
2022/08/01 01:25:10;;;;;;;;;;;;;;;;;;6259768;22;20208;-89
2022/08/01 01:27:45;;;;;;;;;;;;;;;;;;6261560;22;19915;-89
2022/08/01 01:30:38;;;;;;;;;;;;;;;;;;6276681;22;19925;-89
2022/08/01 01:33:10;;;;;;;;;;;;;;;;;;6233641;22;19911;-88
2022/08/01 01:35:36;;;;;;;;;;;;;;;;;;6232742;22;19968;-88
2022/08/01 01:38:05;;;;;;;;;;;;;;;;;;6258793;22;19915;-88
2022/08/01 01:40:36;;;;;;;;;;;;;;;;;;6260077;22;19986;-89
2022/08/01 01:43:15;;;;;;;;;;;;;;;;;;6264192;22;19939;-88
2022/08/01 01:45:41;;;;;;;;;;;;;;;;;;6263918;22;20410;-88
2022/08/01 01:48:21;;;;;;;;;;;;;;;;;;6263647;22;20477;-88
2022/08/01 01:50:59;;;;;;;;;;;;;;;;;;6265588;22;19911;-89
2022/08/01 01:53:31;;;;;;;;;;;;;;;;;;6292380;22;20365;-88
2022/08/01 01:56:00;;;;;;;;;;;;;;;;;;6237965;22;20002;-88
2022/08/01 01:58:29;;;;;;;;;;;;;;;;;;6266277;22;19921;-91
2022/08/01 02:01:11;;;;;;;;;;;;;;;;;;;;;
2022/08/01 02:03:49;;;;;;;;;;;;;;;;;;6291945;22;19915;-92
2022/08/01 02:12:49;;;;;;;;;;;;;;;;;;6052058;23;19913;-91
2022/08/01 02:15:42;;;;;;;;;;;;;;;;;;6021109;23;19928;-91
2022/08/01 02:24:24;;;;;;;;;;;;;;;;;;6112571;23;19992;-93
2022/08/01 02:26:59;;;;;;;;;;;;;;;;;;6082942;23;19925;-93
2022/08/01 02:29:30;;;;;;;;;;;;;;;;;;6083922;23;19913;-93
2022/08/01 02:32:01;;;;;;;;;;;;;;;;;;6081049;23;20347;-92
2022/08/01 02:34:27;;;;;;;;;;;;;;;;;;6105223;23;19940;-93
2022/08/01 02:37:02;;;;;;;;;;;;;;;;;;6079360;23;19927;-93
2022/08/01 02:39:33;;;;;;;;;;;;;;;;;;6077199;23;19917;-92
2022/08/01 02:41:59;;;;;;;;;;;;;;;;;;6134997;23;19916;-92
2022/08/01 02:44:29;;;;;;;;;;;;;;;;;;6164448;22;19926;-93
2022/08/01 02:46:55;;;;;;;;;;;;;;;;;;6201785;22;19943;-94
2022/08/01 02:49:21;;;;;;;;;;;;;;;;;;6202580;22;20016;-94
2022/08/01 02:51:47;;;;;;;;;;;;;;;;;;6213210;22;20327;-92
2022/08/01 02:54:22;;;;;;;;;;;;;;;;;;6262436;22;19938;-92
2022/08/01 02:56:48;;;;;;;;;;;;;;;;;;6260463;22;19915;-93
2022/08/01 02:59:14;;;;;;;;;;;;;;;;;;6257625;22;20293;-94
2022/08/01 03:01:40;;;;;;;;;;;;;;;;;;6260741;22;20239;-93
2022/08/01 03:04:06;;;;;;;;;;;;;;;;;;6258076;22;20415;-93
2022/08/01 03:06:32;;;;;;;;;;;;;;;;;;6262110;22;20214;-91
2022/08/01 03:09:01;;;;;;;;;;;;;;;;;;6258677;22;19998;-92
2022/08/01 03:11:28;;;;;;;;;;;;;;;;;;6262449;22;19915;-94
2022/08/01 03:13:57;;;;;;;;;;;;;;;;;;6258752;22;19938;-92
2022/08/01 03:16:25;;;;;;;;;;;;;;;;;;6258920;22;19926;-94
2022/08/01 03:18:51;;;;;;;;;;;;;;;;;;6261397;22;19997;-94
2022/08/01 03:21:23;;;;;;;;;;;;;;;;;;6258430;22;19914;-93
2022/08/01 03:23:56;;;;;;;;;;;;;;;;;;6261994;22;19921;-94
2022/08/01 03:26:28;;;;;;;;;;;;;;;;;;6261247;22;19934;-93
2022/08/01 03:29:12;;;;;;;;;;;;;;;;;;6261006;22;20295;-93
2022/08/01 03:31:43;;;;;;;;;;;;;;;;;;6231968;22;19966;-93
2022/08/01 03:34:09;;;;;;;;;;;;;;;;;;6256699;22;20368;-95
2022/08/01 03:36:38;;;;;;;;;;;;;;;;;;6259391;22;19937;-94
2022/08/01 03:39:13;;;;;;;;;;;;;;;;;;6256471;22;19921;-89
2022/08/01 03:41:39;;;;;;;;;;;;;;;;;;6233277;22;20020;-88
2022/08/01 03:44:11;;;;;;;;;;;;;;;;;;6254285;22;20266;-88
2022/08/01 03:46:39;;;;;;;;;;;;;;;;;;6233631;22;19914;-89
2022/08/01 03:49:05;;;;;;;;;;;;;;;;;;6234707;22;19925;-88
2022/08/01 03:51:34;;;;;;;;;;;;;;;;;;6240311;22;19994;-89
2022/08/01 03:54:07;;;;;;;;;;;;;;;;;;6238693;22;19922;-88
2022/08/01 03:56:39;;;;;;;;;;;;;;;;;;6241014;22;19919;-90
2022/08/01 03:59:08;;;;;;;;;;;;;;;;;;6288608;22;19989;-88
2022/08/01 04:01:34;;;;;;;;;;;;;;;;;;6239526;22;19915;-89
2022/08/01 04:04:04;;;;;;;;;;;;;;;;;;6238931;22;19919;-88
2022/08/01 04:06:33;;;;;;;;;;;;;;;;;;6241187;22;19922;-89
2022/08/01 04:09:14;;;;;;;;;;;;;;;;;;6238578;22;19914;-89
2022/08/01 04:12:01;;;;;;;;;;;;;;;;;;6292914;22;20020;-89
2022/08/01 04:14:33;;;;;;;;;;;;;;;;;;6242838;22;19981;-88
2022/08/01 04:16:59;;;;;;;;;;;;;;;;;;6240343;22;20196;-88
2022/08/01 04:19:25;;;;;;;;;;;;;;;;;;6279122;22;19914;-89
2022/08/01 04:21:54;;;;;;;;;;;;;;;;;;6258793;22;20017;-89
2022/08/01 04:24:20;;;;;;;;;;;;;;;;;;6234359;22;19942;-89
2022/08/01 04:26:49;;;;;;;;;;;;;;;;;;6235759;22;19915;-89
2022/08/01 04:29:18;;;;;;;;;;;;;;;;;;6286294;22;19926;-88
2022/08/01 04:31:44;;;;;;;;;;;;;;;;;;6235144;22;19926;-89
2022/08/01 04:34:14;;;;;;;;;;;;;;;;;;6235397;22;19923;-89
2022/08/01 04:36:52;;;;;;;;;;;;;;;;;;6236305;22;19941;-89
2022/08/01 04:39:27;;;;;;;;;;;;;;;;;;6287532;22;20209;-89
2022/08/01 04:41:56;;;;;;;;;;;;;;;;;;6235064;22;19921;-89
2022/08/01 04:44:27;;;;;;;;;;;;;;;;;;6234695;22;20324;-89
2022/08/01 04:46:59;;;;;;;;;;;;;;;;;;6235763;22;19914;-89
2022/08/01 04:49:27;;;;;;;;;;;;;;;;;;6233594;22;19914;-89
2022/08/01 04:52:06;;;;;;;;;;;;;;;;;;6237715;22;20366;-88
2022/08/01 04:54:33;;;;;;;;;;;;;;;;;;6289346;22;19987;-88
2022/08/01 04:57:05;;;;;;;;;;;;;;;;;;6232334;22;19915;-88
2022/08/01 04:59:40;;;;;;;;;;;;;;;;;;6234366;22;19918;-88
2022/08/01 05:02:09;;;;;;;;;;;;;;;;;;6231609;22;19921;-88
2022/08/01 05:04:35;;;;;;;;;;;;;;;;;;6235220;22;19914;-88
2022/08/01 05:07:01;;;;;;;;;;;;;;;;;;6234173;22;20221;-88
2022/08/01 05:09:27;;;;;;;;;;;;;;;;;;6235784;22;19915;-89
2022/08/01 05:11:53;;;;;;;;;;;;;;;;;;6233903;22;19917;-88
2022/08/01 05:14:22;;;;;;;;;;;;;;;;;;6285428;22;19918;-87
2022/08/01 05:16:48;;;;;;;;;;;;;;;;;;6235710;22;20270;-88
2022/08/01 05:19:14;;;;;;;;;;;;;;;;;;6286428;22;20329;-88
2022/08/01 05:21:40;;;;;;;;;;;;;;;;;;6234474;22;19981;-88
2022/08/01 05:24:06;;;;;;;;;;;;;;;;;;6234715;22;19937;-88
2022/08/01 05:26:34;;;;;;;;;;;;;;;;;;6234278;22;20336;-89
2022/08/01 05:29:01;;;;;;;;;;;;;;;;;;6235911;22;19919;-88
2022/08/01 05:31:27;;;;;;;;;;;;;;;;;;6234598;22;19921;-88
2022/08/01 05:33:53;;;;;;;;;;;;;;;;;;6235439;22;19914;-89
2022/08/01 05:36:19;;;;;;;;;;;;;;;;;;6283898;22;20336;-89
2022/08/01 05:38:51;;;;;;;;;;;;;;;;;;6244461;22;19922;-87
2022/08/01 05:41:23;;;;;;;;;;;;;;;;;;6244500;22;19986;-88
2022/08/01 05:43:49;;;;;;;;;;;;;;;;;;6242225;22;19926;-89
2022/08/01 05:46:15;;;;;;;;;;;;;;;;;;6292074;22;20245;-89
2022/08/01 05:48:44;;;;;;;;;;;;;;;;;;6293901;22;19933;-88
2022/08/01 05:51:10;;;;;;;;;;;;;;;;;;6290141;22;19915;-88
2022/08/01 05:53:36;;;;;;;;;;;;;;;;;;6241860;22;19926;-89
2022/08/01 05:56:02;;;;;;;;;;;;;;;;;;6261918;22;20439;-88
2022/08/01 05:58:31;;;;;;;;;;;;;;;;;;6238722;22;19915;-88
2022/08/01 06:00:57;;;;;;;;;;;;;;;;;;6236763;22;19914;-88
2022/08/01 06:03:30;;;;;;;;;;;;;;;;;;6239740;22;19946;-88
2022/08/01 06:05:56;;;;;;;;;;;;;;;;;;6262663;22;20016;-88
2022/08/01 06:08:25;;;;;;;;;;;;;;;;;;6239037;22;19976;-89
2022/08/01 06:10:59;;;;;;;;;;;;;;;;;;6238732;22;19918;-88
2022/08/01 06:13:28;;;;;;;;;;;;;;;;;;6235364;22;19915;-88
2022/08/01 06:15:56;;;;;;;;;;;;;;;;;;6235433;22;19981;-88
2022/08/01 06:18:25;;;;;;;;;;;;;;;;;;6233652;22;19973;-88
2022/08/01 06:20:51;;;;;;;;;;;;;;;;;;6233109;22;19919;-89
2022/08/01 06:23:17;;;;;;;;;;;;;;;;;;6231935;22;20378;-88
2022/08/01 06:25:43;;;;;;;;;;;;;;;;;;6235009;22;19911;-89
2022/08/01 06:28:09;;;;;;;;;;;;;;;;;;6287002;22;20181;-88
2022/08/01 06:30:38;;;;;;;;;;;;;;;;;;6234410;22;19922;-88
2022/08/01 06:33:04;;;;;;;;;;;;;;;;;;6231960;22;19915;-88
2022/08/01 06:35:35;;;;;;;;;;;;;;;;;;6259961;22;20255;-88
2022/08/01 06:38:01;;;;;;;;;;;;;;;;;;6259804;22;20364;-88
2022/08/01 06:40:27;;;;;;;;;;;;;;;;;;6235024;22;20045;-89
2022/08/01 06:42:53;;;;;;;;;;;;;;;;;;6236219;22;19917;-88
2022/08/01 06:45:22;;;;;;;;;;;;;;;;;;6234892;22;20037;-89
2022/08/01 06:47:48;;;;;;;;;;;;;;;;;;6234374;22;19911;-89
2022/08/01 06:50:14;;;;;;;;;;;;;;;;;;6259215;22;20265;-89
2022/08/01 06:52:40;;;;;;;;;;;;;;;;;;6233674;22;19963;-89
2022/08/01 06:55:06;;;;;;;;;;;;;;;;;;6230053;22;20097;-88
2022/08/01 06:57:32;;;;;;;;;;;;;;;;;;6233257;22;19946;-89
2022/08/01 06:59:58;;;;;;;;;;;;;;;;;;6233715;22;20346;-89
2022/08/01 07:02:27;;;;;;;;;;;;;;;;;;6239602;22;19917;-89
2022/08/01 07:04:53;;;;;;;;;;;;;;;;;;6233392;22;20014;-88
2022/08/01 07:07:22;;;;;;;;;;;;;;;;;;6259436;22;19914;-88
2022/08/01 07:09:51;;;;;;;;;;;;;;;;;;6286884;22;20236;-88
2022/08/01 07:12:17;;;;;;;;;;;;;;;;;;6235308;22;19915;-89
2022/08/01 07:14:43;;;;;;;;;;;;;;;;;;6288519;22;19962;-88
2022/08/01 07:17:12;;;;;;;;;;;;;;;;;;6233978;22;20236;-88
2022/08/01 07:19:41;;;;;;;;;;;;;;;;;;6287785;22;20280;-89
2022/08/01 07:22:07;;;;;;;;;;;;;;;;;;6285667;22;19917;-89
2022/08/01 07:24:33;;;;;;;;;;;;;;;;;;6235723;22;19921;-89
2022/08/01 07:26:59;;;;;;;;;;;;;;;;;;6232399;22;19964;-88
2022/08/01 07:29:25;;;;;;;;;;;;;;;;;;6234155;22;20022;-89
2022/08/01 07:31:54;;;;;;;;;;;;;;;;;;6234325;22;19919;-89
2022/08/01 07:34:23;;;;;;;;;;;;;;;;;;6237357;22;19914;-88
2022/08/01 07:36:49;;;;;;;;;;;;;;;;;;6283799;22;19972;-88
2022/08/01 07:39:15;;;;;;;;;;;;;;;;;;6234294;22;20449;-88
2022/08/01 07:41:41;;;;;;;;;;;;;;;;;;6239764;22;19938;-89
2022/08/01 07:44:07;;;;;;;;;;;;;;;;;;6286644;22;19914;-89
2022/08/01 07:46:33;;;;;;;;;;;;;;;;;;6241523;22;19918;-88
2022/08/01 07:48:59;;;;;;;;;;;;;;;;;;6261427;22;19914;-89
2022/08/01 07:51:25;;;;;;;;;;;;;;;;;;6291251;22;19914;-89
2022/08/01 07:53:51;;;;;;;;;;;;;;;;;;6239828;22;20339;-89
2022/08/01 07:56:17;;;;;;;;;;;;;;;;;;6237272;22;19968;-89
2022/08/01 07:58:43;;;;;;;;;;;;;;;;;;6241784;22;20524;-88
2022/08/01 08:01:11;;;;;;;;;;;;;;;;;;6237114;22;19922;-89
2022/08/01 08:03:37;;;;;;;;;;;;;;;;;;6237230;22;19920;-89
2022/08/01 08:06:03;;;;;;;;;;;;;;;;;;6238148;22;19926;-89
2022/08/01 08:08:34;;;;;;;;;;;;;;;;;;6239936;22;19964;-90
2022/08/01 08:11:00;;;;;;;;;;;;;;;;;;6237868;22;20333;-90
2022/08/01 08:13:26;;;;;;;;;;;;;;;;;;6239190;22;19914;-90
2022/08/01 08:15:52;;;;;;;;;;;;;;;;;;6290374;22;19958;-89
2022/08/01 08:18:18;;;;;;;;;;;;;;;;;;6233489;22;19915;-89
2022/08/01 08:20:44;;;;;;;;;;;;;;;;;;6262350;22;19921;-89
2022/08/01 08:26:00;;;;;;;;;;;;;;;;;;6288324;22;20156;-91
2022/08/01 08:28:26;;;;;;;;;;;;;;;;;;6236938;22;20243;-91
2022/08/01 08:30:56;;;;;;;;;;;;;;;;;;6236459;22;19968;-91
2022/08/01 08:33:22;;;;;;;;;;;;;;;;;;6285051;22;19915;-90
2022/08/01 08:35:50;;;;;;;;;;;;;;;;;;6233470;22;20390;-91
2022/08/01 08:38:19;;;;;;;;;;;;;;;;;;6284399;22;19923;-90
2022/08/01 08:40:47;;;;;;;;;;;;;;;;;;6234824;22;19914;-90
2022/08/01 08:43:13;;;;;;;;;;;;;;;;;;6231944;22;20328;-90
2022/08/01 08:45:39;;;;;;;;;;;;;;;;;;6236009;22;19993;-90
2022/08/01 08:48:05;;;;;;;;;;;;;;;;;;6234112;22;19914;-90
2022/08/01 08:50:31;;;;;;;;;;;;;;;;;;6236364;22;19918;-89
2022/08/01 08:52:57;;;;;;;;;;;;;;;;;;6235310;22;19915;-90
2022/08/01 08:55:24;;;;;;;;;;;;;;;;;;6286353;22;20343;-90
2022/08/01 08:57:52;;;;;;;;;;;;;;;;;;6262853;22;19975;-91
2022/08/01 09:00:19;;;;;;;;;;;;;;;;;;6234539;22;19911;-90
2022/08/01 09:02:48;;;;;;;;;;;;;;;;;;6236430;22;19989;-89
2022/08/01 09:05:14;;;;;;;;;;;;;;;;;;6232432;22;20306;-90
2022/08/01 09:07:43;;;;;;;;;;;;;;;;;;6286141;22;20645;-90
2022/08/01 09:10:12;;;;;;;;;;;;;;;;;;6284591;22;19921;-91
2022/08/01 09:12:47;;;;;;;;;;;;;;;;;;6232417;22;19984;-90
2022/08/01 09:15:20;;;;;;;;;;;;;;;;;;6252997;22;20387;-91
2022/08/01 09:17:52;;;;;;;;;;;;;;;;;;6288537;22;19915;-89
2022/08/01 09:20:21;;;;;;;;;;;;;;;;;;6235456;22;19911;-89
2022/08/01 09:22:47;;;;;;;;;;;;;;;;;;6234120;22;19915;-93
2022/08/01 09:25:13;;;;;;;;;;;;;;;;;;6286477;22;19995;-90
2022/08/01 09:27:39;;;;;;;;;;;;;;;;;;6232790;22;19914;-90
2022/08/01 09:30:08;;;;;;;;;;;;;;;;;;6230189;22;19915;-90
2022/08/01 09:32:36;;;;;;;;;;;;;;;;;;6235344;22;19921;-90
2022/08/01 09:35:02;;;;;;;;;;;;;;;;;;6230114;22;19919;-91
2022/08/01 09:37:28;;;;;;;;;;;;;;;;;;6233903;22;19982;-89
2022/08/01 09:39:54;;;;;;;;;;;;;;;;;;6233800;22;19925;-91
2022/08/01 09:42:21;;;;;;;;;;;;;;;;;;6233013;22;19921;-91
2022/08/01 09:44:47;;;;;;;;;;;;;;;;;;6238281;22;19921;-91
2022/08/01 09:47:13;;;;;;;;;;;;;;;;;;6236961;22;19958;-92
2022/08/01 09:49:42;;;;;;;;;;;;;;;;;;6237425;22;19965;-91
2022/08/01 09:52:17;;;;;;;;;;;;;;;;;;6236768;22;19921;-93
2022/08/01 09:54:49;;;;;;;;;;;;;;;;;;6242508;22;19914;-91
2022/08/01 09:57:15;;;;;;;;;;;;;;;;;;6239759;22;20411;-90
2022/08/01 09:59:47;;;;;;;;;;;;;;;;;;6293440;22;19915;-91
2022/08/01 10:02:16;;;;;;;;;;;;;;;;;;6238798;22;19921;-90
2022/08/01 10:04:42;;;;;;;;;;;;;;;;;;6242066;22;19914;-90
2022/08/01 10:07:08;;;;;;;;;;;;;;;;;;6239537;22;20441;-91
2022/08/01 10:09:34;;;;;;;;;;;;;;;;;;6243077;22;19915;-89
2022/08/01 10:12:02;;;;;;;;;;;;;;;;;;6284509;22;19936;-90
2022/08/01 10:14:38;;;;;;;;;;;;;;;;;;6236910;22;20001;-91
2022/08/01 10:17:04;;;;;;;;;;;;;;;;;;6235051;22;20247;-92
2022/08/01 10:19:30;;;;;;;;;;;;;;;;;;6238364;22;19950;-92
2022/08/01 10:21:58;;;;;;;;;;;;;;;;;;6233836;22;20262;-91
2022/08/01 10:24:24;;;;;;;;;;;;;;;;;;6268315;22;19918;-92
2022/08/01 10:26:59;;;;;;;;;;;;;;;;;;6238815;22;19985;-91
2022/08/01 10:29:28;;;;;;;;;;;;;;;;;;6242654;22;19961;-92
2022/08/01 10:31:54;;;;;;;;;;;;;;;;;;6243936;22;20312;-91
2022/08/01 10:34:20;;;;;;;;;;;;;;;;;;6239788;22;20000;-91
2022/08/01 10:36:46;;;;;;;;;;;;;;;;;;6290643;22;20651;-92
2022/08/01 10:39:12;;;;;;;;;;;;;;;;;;6236692;22;20292;-91
2022/08/01 10:41:38;;;;;;;;;;;;;;;;;;6236380;22;20280;-92
2022/08/01 10:44:04;;;;;;;;;;;;;;;;;;6234022;22;19914;-93
2022/08/01 10:46:30;;;;;;;;;;;;;;;;;;6235883;22;20504;-90
2022/08/01 10:48:59;;;;;;;;;;;;;;;;;;6237508;22;19972;-91
2022/08/01 10:51:25;;;;;;;;;;;;;;;;;;6283047;22;19915;-91
2022/08/01 10:53:57;;;;;;;;;;;;;;;;;;6263241;22;19921;-91
2022/08/01 10:56:27;;;;;;;;;;;;;;;;;;6239346;22;19919;-92
2022/08/01 10:58:53;;;;;;;;;;;;;;;;;;6235913;22;19919;-92
2022/08/01 11:01:19;;;;;;;;;;;;;;;;;;6287758;22;19977;-92
2022/08/01 11:03:53;;;;;;;;;;;;;;;;;;6235591;22;19915;-91
2022/08/01 11:06:20;;;;;;;;;;;;;;;;;;6235819;22;19915;-92
2022/08/01 11:08:46;;;;;;;;;;;;;;;;;;6233360;22;19915;-91
2022/08/01 11:11:14;;;;;;;;;;;;;;;;;;6229656;22;19915;-91
2022/08/01 11:13:40;;;;;;;;;;;;;;;;;;6237540;22;19952;-90
2022/08/01 11:16:06;;;;;;;;;;;;;;;;;;6237139;22;20430;-92
2022/08/01 11:18:32;;;;;;;;;;;;;;;;;;6236053;22;19919;-93
2022/08/01 11:20:59;;;;;;;;;;;;;;;;;;6285831;22;20444;-91
2022/08/01 11:23:28;;;;;;;;;;;;;;;;;;6239246;22;19989;-91
2022/08/01 11:25:59;;;;;;;;;;;;;;;;;;6237467;22;19925;-94
2022/08/01 11:28:25;;;;;;;;;;;;;;;;;;6240625;22;19989;-91
2022/08/01 11:31:07;;;;;;;;;;;;;;;;;;;;;
2022/08/01 11:34:33;;;;;;;;;;;;;;;;;;6298901;22;19910;-92
2022/08/01 11:49:54;;;;;;;;;;;;;;;;;;6169566;23;19916;-93
2022/08/01 11:53:07;;;;;;;;;;;;;;;;;;;;;
2022/08/01 11:56:05;;;;;;;;;;;;;;;;;;;;;
2022/08/01 12:05:01;;;;;;;;;;;;;;;;;;6015141;23;19977;-92
2022/08/01 12:10:48;;;;;;;;;;;;;;;;;;6015717;23;20087;-92
2022/08/01 12:16:37;;;;;;;;;;;;;;;;;;6113742;23;20407;-93
2022/08/01 12:19:10;;;;;;;;;;;;;;;;;;6073511;23;20349;-93
2022/08/01 12:21:38;;;;;;;;;;;;;;;;;;6077213;23;19955;-94
2022/08/01 12:24:10;;;;;;;;;;;;;;;;;;6079578;23;19917;-93
2022/08/01 12:26:41;;;;;;;;;;;;;;;;;;6166338;23;19958;-92
2022/08/01 12:29:07;;;;;;;;;;;;;;;;;;6172818;23;20364;-92
2022/08/01 12:31:35;;;;;;;;;;;;;;;;;;6172904;23;19916;-93
2022/08/01 12:34:01;;;;;;;;;;;;;;;;;;6190966;23;20361;-92
2022/08/01 12:36:33;;;;;;;;;;;;;;;;;;6177117;23;19919;-94
2022/08/01 12:39:02;;;;;;;;;;;;;;;;;;6177949;23;19912;-94
2022/08/01 12:41:28;;;;;;;;;;;;;;;;;;6175286;23;20257;-93
2022/08/01 12:43:54;;;;;;;;;;;;;;;;;;6174583;23;20226;-93
2022/08/01 12:46:21;;;;;;;;;;;;;;;;;;6171507;23;19974;-93
2022/08/01 12:48:50;;;;;;;;;;;;;;;;;;6175118;23;19919;-93
2022/08/01 12:51:16;;;;;;;;;;;;;;;;;;6238204;22;19964;-93
2022/08/01 12:53:45;;;;;;;;;;;;;;;;;;6265169;22;19914;-93
2022/08/01 12:56:11;;;;;;;;;;;;;;;;;;6264088;22;19922;-92
2022/08/01 12:58:37;;;;;;;;;;;;;;;;;;6264522;22;20389;-93
2022/08/01 13:01:03;;;;;;;;;;;;;;;;;;6260764;22;20021;-93
2022/08/01 13:03:32;;;;;;;;;;;;;;;;;;6262927;22;19915;-92
2022/08/01 13:06:01;;;;;;;;;;;;;;;;;;6259730;22;19919;-92
2022/08/01 13:08:37;;;;;;;;;;;;;;;;;;6262396;22;19914;-93
2022/08/01 13:11:05;;;;;;;;;;;;;;;;;;6286849;22;19926;-93
2022/08/01 13:13:31;;;;;;;;;;;;;;;;;;6261754;22;19941;-95
2022/08/01 13:16:00;;;;;;;;;;;;;;;;;;6262971;22;20492;-93
2022/08/01 13:18:27;;;;;;;;;;;;;;;;;;6263667;22;20119;-93
2022/08/01 13:20:55;;;;;;;;;;;;;;;;;;6261417;22;19914;-93
2022/08/01 13:23:21;;;;;;;;;;;;;;;;;;6264114;22;19925;-94
2022/08/01 13:25:50;;;;;;;;;;;;;;;;;;6264027;22;19915;-93
2022/08/01 13:28:16;;;;;;;;;;;;;;;;;;6262997;22;19921;-92
2022/08/01 13:30:42;;;;;;;;;;;;;;;;;;6263191;22;19971;-92
2022/08/01 13:33:13;;;;;;;;;;;;;;;;;;6237708;22;19972;-93
2022/08/01 13:35:47;;;;;;;;;;;;;;;;;;6236983;22;20316;-95
2022/08/01 13:38:16;;;;;;;;;;;;;;;;;;6264770;22;20121;-93
2022/08/01 13:40:42;;;;;;;;;;;;;;;;;;6239428;22;20014;-93
2022/08/01 13:43:11;;;;;;;;;;;;;;;;;;6290847;22;19911;-93
2022/08/01 13:45:40;;;;;;;;;;;;;;;;;;6266807;22;19914;-93
2022/08/01 13:48:13;;;;;;;;;;;;;;;;;;6264271;22;19915;-93
2022/08/01 13:50:39;;;;;;;;;;;;;;;;;;6240850;22;20338;-95
2022/08/01 13:53:05;;;;;;;;;;;;;;;;;;6264433;22;20292;-94
2022/08/01 13:55:37;;;;;;;;;;;;;;;;;;6266673;22;19964;-93
2022/08/01 13:58:04;;;;;;;;;;;;;;;;;;6238963;22;19918;-93
2022/08/01 14:00:30;;;;;;;;;;;;;;;;;;6267292;22;20308;-92
2022/08/01 14:02:59;;;;;;;;;;;;;;;;;;6265680;22;19922;-93
2022/08/01 14:05:27;;;;;;;;;;;;;;;;;;6268941;22;20353;-93
2022/08/01 14:07:56;;;;;;;;;;;;;;;;;;6267219;22;19955;-92
2022/08/01 14:10:23;;;;;;;;;;;;;;;;;;6266786;22;20265;-93
2022/08/01 14:12:51;;;;;;;;;;;;;;;;;;6265012;22;19914;-93
2022/08/01 14:15:17;;;;;;;;;;;;;;;;;;6264830;22;19919;-94
2022/08/01 14:17:46;;;;;;;;;;;;;;;;;;6260088;22;19911;-94
2022/08/01 14:20:19;;;;;;;;;;;;;;;;;;6258861;22;20740;-94
2022/08/01 14:22:45;;;;;;;;;;;;;;;;;;6235115;22;19926;-95
2022/08/01 14:25:19;;;;;;;;;;;;;;;;;;6258215;22;20371;-95
2022/08/01 14:27:50;;;;;;;;;;;;;;;;;;6260224;22;19911;-95
2022/08/01 14:30:16;;;;;;;;;;;;;;;;;;6257305;22;19915;-94
2022/08/01 14:32:45;;;;;;;;;;;;;;;;;;6264277;22;19915;-94
2022/08/01 14:35:12;;;;;;;;;;;;;;;;;;6258027;22;19922;-94
2022/08/01 14:37:38;;;;;;;;;;;;;;;;;;6260563;22;20229;-94
2022/08/01 14:40:07;;;;;;;;;;;;;;;;;;6258614;22;20243;-95
2022/08/01 14:42:36;;;;;;;;;;;;;;;;;;6262386;22;20216;-95
2022/08/01 14:45:02;;;;;;;;;;;;;;;;;;6255898;22;19953;-95
2022/08/01 14:47:28;;;;;;;;;;;;;;;;;;6257391;22;20438;-95
2022/08/01 14:49:57;;;;;;;;;;;;;;;;;;6232857;22;19922;-96
2022/08/01 14:52:23;;;;;;;;;;;;;;;;;;6233243;22;19921;-94
2022/08/01 14:54:49;;;;;;;;;;;;;;;;;;6260892;22;19921;-96
2022/08/01 14:57:17;;;;;;;;;;;;;;;;;;6258923;22;19930;-96
2022/08/01 14:59:49;;;;;;;;;;;;;;;;;;6259924;22;19918;-94
2022/08/01 15:02:18;;;;;;;;;;;;;;;;;;6257539;22;20188;-93
2022/08/01 15:04:47;;;;;;;;;;;;;;;;;;6235252;22;19951;-94
2022/08/01 15:07:13;;;;;;;;;;;;;;;;;;6258916;22;20498;-95
2022/08/01 15:09:39;;;;;;;;;;;;;;;;;;6233109;22;19922;-95
2022/08/01 15:12:05;;;;;;;;;;;;;;;;;;6229026;22;20414;-92
2022/08/01 15:14:52;;;;;;;;;;;;;;;;;;6237779;22;19946;-94
2022/08/01 15:17:18;;;;;;;;;;;;;;;;;;6234738;22;20672;-94
2022/08/01 15:19:44;;;;;;;;;;;;;;;;;;6259111;22;19911;-96
2022/08/01 15:22:10;;;;;;;;;;;;;;;;;;6257152;22;19915;-95
2022/08/01 15:24:36;;;;;;;;;;;;;;;;;;6260126;22;19921;-94
2022/08/01 15:27:03;;;;;;;;;;;;;;;;;;6256971;22;20211;-95
2022/08/01 15:29:36;;;;;;;;;;;;;;;;;;6257619;22;19914;-94
2022/08/01 15:32:08;;;;;;;;;;;;;;;;;;6235225;22;19910;-94
2022/08/01 15:34:34;;;;;;;;;;;;;;;;;;6260086;22;19921;-95
2022/08/01 15:37:00;;;;;;;;;;;;;;;;;;6266179;22;20098;-95
2022/08/01 15:39:26;;;;;;;;;;;;;;;;;;6267049;22;19910;-94
2022/08/01 15:41:52;;;;;;;;;;;;;;;;;;6266642;22;19985;-93
2022/08/01 15:44:19;;;;;;;;;;;;;;;;;;6266572;22;19945;-95
2022/08/01 15:46:48;;;;;;;;;;;;;;;;;;6269168;22;20024;-95
2022/08/01 15:49:14;;;;;;;;;;;;;;;;;;6270382;22;19937;-93
2022/08/01 15:51:46;;;;;;;;;;;;;;;;;;6250673;22;19938;-93
2022/08/01 15:54:12;;;;;;;;;;;;;;;;;;6269254;22;19922;-93
2022/08/01 15:56:38;;;;;;;;;;;;;;;;;;6266879;22;19921;-95
2022/08/01 15:59:05;;;;;;;;;;;;;;;;;;6263533;22;19921;-95
2022/08/01 16:01:37;;;;;;;;;;;;;;;;;;6266160;22;20340;-96
2022/08/01 16:04:03;;;;;;;;;;;;;;;;;;6268710;22;19918;-93
2022/08/01 16:06:29;;;;;;;;;;;;;;;;;;6266127;22;19985;-94
2022/08/01 16:08:55;;;;;;;;;;;;;;;;;;6260551;22;19914;-92
2022/08/01 16:11:22;;;;;;;;;;;;;;;;;;6263005;22;19917;-93
2022/08/01 16:13:48;;;;;;;;;;;;;;;;;;6260359;22;19915;-94
2022/08/01 16:16:17;;;;;;;;;;;;;;;;;;6258972;22;20172;-90
2022/08/01 16:18:47;;;;;;;;;;;;;;;;;;6259768;22;19926;-95
2022/08/01 16:21:13;;;;;;;;;;;;;;;;;;6259353;22;19914;-94
2022/08/01 16:23:39;;;;;;;;;;;;;;;;;;6263382;22;19999;-96
2022/08/01 16:26:07;;;;;;;;;;;;;;;;;;6259089;22;20247;-95
2022/08/01 16:28:34;;;;;;;;;;;;;;;;;;6265048;22;19921;-95
2022/08/01 16:31:02;;;;;;;;;;;;;;;;;;6259629;22;19915;-94
2022/08/01 16:33:35;;;;;;;;;;;;;;;;;;6236791;22;20632;-95
2022/08/01 16:36:01;;;;;;;;;;;;;;;;;;6258362;22;19930;-96
2022/08/01 16:38:27;;;;;;;;;;;;;;;;;;6258006;22;20220;-96
2022/08/01 16:40:54;;;;;;;;;;;;;;;;;;6261462;22;19994;-93
2022/08/01 16:43:29;;;;;;;;;;;;;;;;;;6262292;22;19936;-95
2022/08/01 16:45:57;;;;;;;;;;;;;;;;;;6262021;22;19941;-94
2022/08/01 16:48:26;;;;;;;;;;;;;;;;;;6262953;22;19915;-96
2022/08/01 16:50:52;;;;;;;;;;;;;;;;;;6262265;22;20383;-95
2022/08/01 16:53:18;;;;;;;;;;;;;;;;;;6261083;22;20227;-94
2022/08/01 16:55:48;;;;;;;;;;;;;;;;;;6259828;22;19956;-95
2022/08/01 16:58:14;;;;;;;;;;;;;;;;;;6258141;22;20247;-95
2022/08/01 17:00:43;;;;;;;;;;;;;;;;;;6235004;22;19914;-96
2022/08/01 17:03:09;;;;;;;;;;;;;;;;;;6231916;22;19953;-95
2022/08/01 17:05:38;;;;;;;;;;;;;;;;;;6258902;22;19957;-95
2022/08/01 17:08:04;;;;;;;;;;;;;;;;;;6258717;22;19918;-95
2022/08/01 17:10:38;;;;;;;;;;;;;;;;;;6259858;22;19915;-94
2022/08/01 17:13:04;;;;;;;;;;;;;;;;;;6257649;22;20063;-95
2022/08/01 17:15:33;;;;;;;;;;;;;;;;;;6240418;22;19925;-95
2022/08/01 17:18:04;;;;;;;;;;;;;;;;;;6237259;22;19918;-93
2022/08/01 17:20:30;;;;;;;;;;;;;;;;;;6238828;22;19985;-93
2022/08/01 17:22:56;;;;;;;;;;;;;;;;;;6264274;22;19989;-94
2022/08/01 17:25:23;;;;;;;;;;;;;;;;;;6265972;22;19941;-95
2022/08/01 17:27:51;;;;;;;;;;;;;;;;;;6260404;22;19949;-95
2022/08/01 17:30:17;;;;;;;;;;;;;;;;;;6256849;22;19993;-95
2022/08/01 17:32:47;;;;;;;;;;;;;;;;;;6263225;22;19946;-95
2022/08/01 17:35:15;;;;;;;;;;;;;;;;;;6262451;22;20288;-95
2022/08/01 17:37:41;;;;;;;;;;;;;;;;;;6264899;22;19915;-95
2022/08/01 17:40:07;;;;;;;;;;;;;;;;;;6235576;22;20346;-93
2022/08/01 17:42:34;;;;;;;;;;;;;;;;;;6236194;22;19914;-95